METAR Data
IDs: Format: Raw Decoded Include TAF

Data at: 1413 UTC 25 Nov 2020

Region: TOP
KATL 251352Z 13012G17KT 8SM BKN007 OVC050 12/09 A3023 RMK AO2 SLP239 BINOVC T01170089

KBOS 251354Z 00000KT 10SM R04R/4000VP6000FT OVC036 02/M04 A3045 RMK AO2 SLP312 T00171039

KBWI 251354Z 19008KT 10SM FEW210 SCT250 09/03 A3031 RMK AO2 SLP263 T00890028

KCLE 251351Z 19010KT 10SM BKN046 OVC055 08/03 A3001 RMK AO2 SLP183 T00830028

KCLT 251352Z 01004KT 10SM SCT049 OVC070 09/04 A3033 RMK AO2 SLP269 T00890039

KCVG 251352Z 16016KT 5SM RA BR BKN050 OVC070 09/08 A2996 RMK AO2 SLP144 P0018 T00940078 $

KDCA 251352Z 20008KT 10SM SCT160 BKN250 08/03 A3033 RMK AO2 SLP269 T00830033

KDEN 251353Z 20012KT 10SM CLR M03/M09 A2991 RMK AO2 SLP151 T10331089

KDFW 251353Z 28013KT 10SM FEW110 08/02 A3005 RMK AO2 SLP173 T00830022

KDTW 251353Z 18007KT 3SM -RA BR OVC021 06/04 A2997 RMK AO2 DZE12RAB12 SLP155 P0001 T00560044

KEWR 251351Z 20006KT 10SM FEW034 SCT180 BKN240 09/02 A3037 RMK AO2 SLP282 T00940022

KFLL 251353Z 09013KT 10SM BKN032 OVC070 25/20 A3018 RMK AO2 SLP220 T02560206 $

KIAD 251352Z 19013G19KT 10SM BKN130 BKN230 08/02 A3030 RMK AO2 SLP261 T00780017

KIAH 251353Z 34007KT 10SM BKN060 BKN085 18/16 A3004 RMK AO2 SLP174 T01830156

KJFK 251351Z 23010KT 10SM SCT035 BKN042 BKN170 BKN250 09/04 A3038 RMK AO2 SLP288 T00890044 $

KLAS 251356Z 22004KT 10SM CLR 05/M08 A3012 RMK AO2 SLP197 T00501083

KLAX 251411Z 00000KT 1/4SM R25L/1400V2400FT FG VV003 10/10 A3009 RMK AO2 T01000100

KLGA 251351Z 22007KT 10SM BKN038 BKN180 BKN250 11/01 A3037 RMK AO2 SLP282 T01060011

KMCO 251353Z 10005KT 10SM FEW070 22/16 A3023 RMK AO2 SLP235 T02170161

KMDW 251353Z 09004KT 2 1/2SM BR OVC004 07/06 A2982 RMK AO2 SLP103 T00720061

KMEM 251354Z 20012G19KT 10SM FEW013 SCT025 BKN095 BKN250 17/16 A2983 RMK AO2 SLP100 T01720156 $

KMIA 251353Z 11013G17KT 10SM SCT024 BKN032 23/21 A3019 RMK AO2 RAB25E42 SLP224 P0000 T02330206

KMSP 251353Z 05007KT 9SM OVC007 01/00 A2991 RMK AO2 SLP137 T00110000

KORD 251351Z 12005KT 1SM R10L/P6000FT -DZ BR OVC003 07/06 A2982 RMK AO2 SLP099 P0001 T00720061

KPDX 251353Z 22007KT 10SM -RA FEW009 OVC041 07/05 A3007 RMK AO2 RAB46 SLP181 P0000 T00670050

KPHL 251354Z 19007KT 10SM FEW220 BKN250 08/02 A3036 RMK AO2 SLP278 T00780022 $

KPHX 251351Z 11005KT 10SM CLR 09/M04 A3009 RMK AO2 SLP184 T00891039 $

KPIT 251351Z 19004KT 10SM -RA SCT060 OVC090 08/M01 A3012 RMK AO2 RAE20B40 SLP213 P0000 T00781006

KSAN 251351Z 00000KT 10SM OVC013 14/10 A3011 RMK AO2 SLP195 T01390100

KSEA 251353Z 19011KT 10SM SCT009 OVC015 06/04 A2997 RMK AO2 SLP156 T00610044 $

KSFO 251356Z 28018KT 10SM FEW006 SCT012 12/08 A3017 RMK AO2 SLP215 T01170083 $

KSLC 251354Z 15018G23KT 10SM FEW200 00/M06 A3003 RMK AO2 SLP175 T00001056

KSTL 251351Z 18004KT 10SM BKN007 OVC011 11/08 A2971 RMK AO2 SLP062 T01060083

KTPA 251353Z 10004KT 10SM SCT045 SCT075 23/16 A3023 RMK AO2 SLP235 T02280156 $